Auburn, New Hampshire
Current Conditions -  °F | °C
As of 12:53 PM on Saturday 25 Oct 2014 (Local Time) from KMHT Reporting Station
Few Clouds Few Clouds  
Wind Chill: 18°   Ceiling: Unl
Heat Index: 18°   Visibility: 10mi
Dew Point:   Wind: 8mph
Humidity: 35%   Direction: 290°WNW
Pressure: 29.65"   Gusts: NA
Location:  43°N, 71.35°W
Report Text: KMHT 251653Z 29007KT 10SM FEW250 18/02 A2965 RMK AO2 SLP052 T01780022
Loading
Personal Weather Stations






























Interactive Weather Map
Tropical Storm Tracking
New forecast layout! Learn more

10-Day Weather Forecast

Advertisements
Track Severe Weather on mobile